sensor_id;sensor_type;location;lat;lon;timestamp;temperature;humidity
7564;DHT22;3823;53.586;10.040;2022-10-31T00:01:17;15.10;91.10
7564;DHT22;3823;53.586;10.040;2022-10-31T00:03:43;15.20;74.60
7564;DHT22;3823;53.586;10.040;2022-10-31T00:06:09;15.20;79.90
7564;DHT22;3823;53.586;10.040;2022-10-31T00:08:34;15.20;64.60
7564;DHT22;3823;53.586;10.040;2022-10-31T00:11:00;15.10;58.80
7564;DHT22;3823;53.586;10.040;2022-10-31T00:13:26;15.10;79.70
7564;DHT22;3823;53.586;10.040;2022-10-31T00:15:52;15.10;79.50
7564;DHT22;3823;53.586;10.040;2022-10-31T00:18:17;15.10;92.60
7564;DHT22;3823;53.586;10.040;2022-10-31T00:20:43;15.20;92.20
7564;DHT22;3823;53.586;10.040;2022-10-31T00:23:09;15.30;88.80
7564;DHT22;3823;53.586;10.040;2022-10-31T00:25:38;15.30;77.80
7564;DHT22;3823;53.586;10.040;2022-10-31T00:28:06;15.30;80.30
7564;DHT22;3823;53.586;10.040;2022-10-31T00:30:32;15.50;63.50
7564;DHT22;3823;53.586;10.040;2022-10-31T00:32:58;15.50;56.90
7564;DHT22;3823;53.586;10.040;2022-10-31T00:35:23;15.60;40.10
7564;DHT22;3823;53.586;10.040;2022-10-31T00:37:49;15.60;28.50
7564;DHT22;3823;53.586;10.040;2022-10-31T00:40:15;15.60;30.50
7564;DHT22;3823;53.586;10.040;2022-10-31T00:42:40;15.70;34.60
7564;DHT22;3823;53.586;10.040;2022-10-31T00:45:08;15.60;15.30
7564;DHT22;3823;53.586;10.040;2022-10-31T00:47:34;15.60;32.50
7564;DHT22;3823;53.586;10.040;2022-10-31T00:50:00;15.60;41.00
7564;DHT22;3823;53.586;10.040;2022-10-31T00:52:25;15.70;31.20
7564;DHT22;3823;53.586;10.040;2022-10-31T00:54:51;15.60;7.90
7564;DHT22;3823;53.586;10.040;2022-10-31T00:57:16;15.50;24.00
7564;DHT22;3823;53.586;10.040;2022-10-31T00:59:42;15.40;36.70
7564;DHT22;3823;53.586;10.040;2022-10-31T01:02:07;15.50;45.50
7564;DHT22;3823;53.586;10.040;2022-10-31T01:04:33;15.50;40.20
7564;DHT22;3823;53.586;10.040;2022-10-31T01:06:59;15.60;37.90
7564;DHT22;3823;53.586;10.040;2022-10-31T01:09:24;15.60;29.40
7564;DHT22;3823;53.586;10.040;2022-10-31T01:11:50;15.60;48.00
7564;DHT22;3823;53.586;10.040;2022-10-31T01:14:15;15.60;52.20
7564;DHT22;3823;53.586;10.040;2022-10-31T01:16:41;15.60;51.20
7564;DHT22;3823;53.586;10.040;2022-10-31T01:19:06;15.60;56.90
7564;DHT22;3823;53.586;10.040;2022-10-31T01:21:32;15.60;70.30
7564;DHT22;3823;53.586;10.040;2022-10-31T01:23:58;15.60;67.40
7564;DHT22;3823;53.586;10.040;2022-10-31T01:26:26;15.50;79.20
7564;DHT22;3823;53.586;10.040;2022-10-31T01:28:55;15.60;91.50
7564;DHT22;3823;53.586;10.040;2022-10-31T01:31:24;15.60;90.40
7564;DHT22;3823;53.586;10.040;2022-10-31T01:33:50;15.50;93.80
7564;DHT22;3823;53.586;10.040;2022-10-31T01:36:22;15.50;97.80
7564;DHT22;3823;53.586;10.040;2022-10-31T01:38:49;15.50;99.90
7564;DHT22;3823;53.586;10.040;2022-10-31T01:41:17;15.60;99.90
7564;DHT22;3823;53.586;10.040;2022-10-31T01:43:48;15.50;99.90
7564;DHT22;3823;53.586;10.040;2022-10-31T01:46:17;15.50;99.90
7564;DHT22;3823;53.586;10.040;2022-10-31T01:48:44;15.50;99.90
7564;DHT22;3823;53.586;10.040;2022-10-31T01:51:12;15.50;99.90
7564;DHT22;3823;53.586;10.040;2022-10-31T01:53:39;15.50;99.90
7564;DHT22;3823;53.586;10.040;2022-10-31T01:56:06;15.50;99.90
7564;DHT22;3823;53.586;10.040;2022-10-31T01:58:32;15.50;99.90
7564;DHT22;3823;53.586;10.040;2022-10-31T02:01:00;15.50;99.90
7564;DHT22;3823;53.586;10.040;2022-10-31T02:03:26;15.50;99.90
7564;DHT22;3823;53.586;10.040;2022-10-31T02:05:54;15.50;99.90
7564;DHT22;3823;53.586;10.040;2022-10-31T02:08:26;15.50;99.90
7564;DHT22;3823;53.586;10.040;2022-10-31T02:10:52;15.50;99.90
7564;DHT22;3823;53.586;10.040;2022-10-31T02:13:19;15.50;99.90
7564;DHT22;3823;53.586;10.040;2022-10-31T02:15:47;15.40;99.90
7564;DHT22;3823;53.586;10.040;2022-10-31T02:18:15;15.40;99.90
7564;DHT22;3823;53.586;10.040;2022-10-31T02:20:48;15.40;99.90
7564;DHT22;3823;53.586;10.040;2022-10-31T02:26:36;15.40;99.90
7564;DHT22;3823;53.586;10.040;2022-10-31T02:38:38;15.40;99.90
7564;DHT22;3823;53.586;10.040;2022-10-31T02:43:21;15.40;99.90
7564;DHT22;3823;53.586;10.040;2022-10-31T02:46:07;15.40;99.90
7564;DHT22;3823;53.586;10.040;2022-10-31T02:48:37;15.40;99.90
7564;DHT22;3823;53.586;10.040;2022-10-31T02:51:04;15.30;99.90
7564;DHT22;3823;53.586;10.040;2022-10-31T02:53:35;15.40;99.90
7564;DHT22;3823;53.586;10.040;2022-10-31T02:56:18;15.30;99.90
7564;DHT22;3823;53.586;10.040;2022-10-31T02:58:54;15.30;99.90
7564;DHT22;3823;53.586;10.040;2022-10-31T03:10:03;15.30;99.90
7564;DHT22;3823;53.586;10.040;2022-10-31T03:12:56;15.20;99.90
7564;DHT22;3823;53.586;10.040;2022-10-31T03:15:32;15.20;99.90
7564;DHT22;3823;53.586;10.040;2022-10-31T03:18:08;15.20;99.90
7564;DHT22;3823;53.586;10.040;2022-10-31T03:20:44;15.20;99.90
7564;DHT22;3823;53.586;10.040;2022-10-31T03:23:14;15.20;99.90
7564;DHT22;3823;53.586;10.040;2022-10-31T03:25:42;15.10;99.90
7564;DHT22;3823;53.586;10.040;2022-10-31T03:28:08;15.20;99.90
7564;DHT22;3823;53.586;10.040;2022-10-31T03:30:37;15.20;99.90
7564;DHT22;3823;53.586;10.040;2022-10-31T03:33:08;15.10;99.90
7564;DHT22;3823;53.586;10.040;2022-10-31T03:35:36;15.10;99.90
7564;DHT22;3823;53.586;10.040;2022-10-31T03:38:03;15.10;99.90
7564;DHT22;3823;53.586;10.040;2022-10-31T03:40:29;15.20;99.90
7564;DHT22;3823;53.586;10.040;2022-10-31T03:43:00;15.10;99.90
7564;DHT22;3823;53.586;10.040;2022-10-31T03:45:30;15.10;99.90
7564;DHT22;3823;53.586;10.040;2022-10-31T03:47:57;15.10;99.90
7564;DHT22;3823;53.586;10.040;2022-10-31T03:50:27;15.10;99.90
7564;DHT22;3823;53.586;10.040;2022-10-31T03:53:16;15.00;99.90
7564;DHT22;3823;53.586;10.040;2022-10-31T03:56:13;15.00;99.90
7564;DHT22;3823;53.586;10.040;2022-10-31T03:58:48;15.00;99.90
7564;DHT22;3823;53.586;10.040;2022-10-31T04:01:20;15.00;99.90
7564;DHT22;3823;53.586;10.040;2022-10-31T04:03:48;14.90;99.90
7564;DHT22;3823;53.586;10.040;2022-10-31T04:06:17;14.90;99.90
7564;DHT22;3823;53.586;10.040;2022-10-31T04:08:56;14.90;99.90
7564;DHT22;3823;53.586;10.040;2022-10-31T04:11:26;14.90;99.90
7564;DHT22;3823;53.586;10.040;2022-10-31T04:13:53;14.90;99.90
7564;DHT22;3823;53.586;10.040;2022-10-31T04:16:21;14.90;99.90
7564;DHT22;3823;53.586;10.040;2022-10-31T04:18:47;14.90;99.90
7564;DHT22;3823;53.586;10.040;2022-10-31T04:21:12;14.90;99.90
7564;DHT22;3823;53.586;10.040;2022-10-31T04:23:38;14.90;99.90
7564;DHT22;3823;53.586;10.040;2022-10-31T04:26:04;14.80;99.90
7564;DHT22;3823;53.586;10.040;2022-10-31T04:28:30;14.80;99.90
7564;DHT22;3823;53.586;10.040;2022-10-31T04:30:55;14.90;99.90
7564;DHT22;3823;53.586;10.040;2022-10-31T04:33:21;14.80;99.90
7564;DHT22;3823;53.586;10.040;2022-10-31T04:35:47;14.80;99.90
7564;DHT22;3823;53.586;10.040;2022-10-31T04:38:13;14.80;99.90
7564;DHT22;3823;53.586;10.040;2022-10-31T04:40:38;14.80;99.90
7564;DHT22;3823;53.586;10.040;2022-10-31T04:43:04;14.80;99.90
7564;DHT22;3823;53.586;10.040;2022-10-31T04:45:30;14.80;99.90
7564;DHT22;3823;53.586;10.040;2022-10-31T04:47:56;14.80;99.90
7564;DHT22;3823;53.586;10.040;2022-10-31T04:50:21;14.90;99.90
7564;DHT22;3823;53.586;10.040;2022-10-31T04:52:47;14.90;99.90
7564;DHT22;3823;53.586;10.040;2022-10-31T04:55:13;14.90;99.90
7564;DHT22;3823;53.586;10.040;2022-10-31T04:57:43;14.90;99.90
7564;DHT22;3823;53.586;10.040;2022-10-31T05:00:10;14.90;99.90
7564;DHT22;3823;53.586;10.040;2022-10-31T05:02:47;14.90;99.90
7564;DHT22;3823;53.586;10.040;2022-10-31T05:05:14;14.90;99.90
7564;DHT22;3823;53.586;10.040;2022-10-31T05:07:42;14.90;99.90
7564;DHT22;3823;53.586;10.040;2022-10-31T05:10:13;14.90;99.90
7564;DHT22;3823;53.586;10.040;2022-10-31T05:12:52;14.90;99.90
7564;DHT22;3823;53.586;10.040;2022-10-31T05:15:19;14.90;99.90
7564;DHT22;3823;53.586;10.040;2022-10-31T05:17:45;14.90;99.90
7564;DHT22;3823;53.586;10.040;2022-10-31T05:20:12;14.90;99.90
7564;DHT22;3823;53.586;10.040;2022-10-31T05:22:45;14.90;99.90
7564;DHT22;3823;53.586;10.040;2022-10-31T05:25:11;14.90;99.90
7564;DHT22;3823;53.586;10.040;2022-10-31T05:27:45;14.90;99.90
7564;DHT22;3823;53.586;10.040;2022-10-31T05:30:13;14.90;99.90
7564;DHT22;3823;53.586;10.040;2022-10-31T05:32:41;14.90;99.90
7564;DHT22;3823;53.586;10.040;2022-10-31T05:35:08;14.80;99.90
7564;DHT22;3823;53.586;10.040;2022-10-31T05:37:37;14.80;99.90
7564;DHT22;3823;53.586;10.040;2022-10-31T05:40:03;14.80;99.90
7564;DHT22;3823;53.586;10.040;2022-10-31T05:42:29;14.80;99.90
7564;DHT22;3823;53.586;10.040;2022-10-31T05:44:55;14.80;99.90
7564;DHT22;3823;53.586;10.040;2022-10-31T05:47:20;14.80;99.90
7564;DHT22;3823;53.586;10.040;2022-10-31T05:49:46;14.80;99.90
7564;DHT22;3823;53.586;10.040;2022-10-31T05:52:11;14.80;99.90
7564;DHT22;3823;53.586;10.040;2022-10-31T05:54:37;14.90;99.90
7564;DHT22;3823;53.586;10.040;2022-10-31T05:57:03;14.90;99.90
7564;DHT22;3823;53.586;10.040;2022-10-31T05:59:28;14.90;99.90
7564;DHT22;3823;53.586;10.040;2022-10-31T06:01:54;14.90;99.90
7564;DHT22;3823;53.586;10.040;2022-10-31T06:04:19;14.80;99.90
7564;DHT22;3823;53.586;10.040;2022-10-31T06:06:45;14.80;99.90
7564;DHT22;3823;53.586;10.040;2022-10-31T06:09:10;14.80;99.90
7564;DHT22;3823;53.586;10.040;2022-10-31T06:11:36;14.80;99.90
7564;DHT22;3823;53.586;10.040;2022-10-31T06:14:02;14.80;99.90
7564;DHT22;3823;53.586;10.040;2022-10-31T06:16:27;14.80;99.90
7564;DHT22;3823;53.586;10.040;2022-10-31T06:18:53;14.80;99.90
7564;DHT22;3823;53.586;10.040;2022-10-31T06:21:19;14.80;99.90
7564;DHT22;3823;53.586;10.040;2022-10-31T06:23:44;14.80;99.90
7564;DHT22;3823;53.586;10.040;2022-10-31T06:26:10;14.80;99.90
7564;DHT22;3823;53.586;10.040;2022-10-31T06:28:35;14.80;99.90
7564;DHT22;3823;53.586;10.040;2022-10-31T06:31:01;14.80;99.90
7564;DHT22;3823;53.586;10.040;2022-10-31T06:33:26;14.80;99.90
7564;DHT22;3823;53.586;10.040;2022-10-31T06:35:52;14.80;99.90
7564;DHT22;3823;53.586;10.040;2022-10-31T06:38:17;14.80;99.90
7564;DHT22;3823;53.586;10.040;2022-10-31T06:40:43;14.80;99.90
7564;DHT22;3823;53.586;10.040;2022-10-31T06:43:08;14.80;99.90
7564;DHT22;3823;53.586;10.040;2022-10-31T06:45:36;14.80;99.90
7564;DHT22;3823;53.586;10.040;2022-10-31T06:48:03;14.80;99.90
7564;DHT22;3823;53.586;10.040;2022-10-31T06:50:28;14.80;99.90
7564;DHT22;3823;53.586;10.040;2022-10-31T06:52:55;14.80;99.90
7564;DHT22;3823;53.586;10.040;2022-10-31T06:55:22;14.80;99.90
7564;DHT22;3823;53.586;10.040;2022-10-31T06:58:00;14.80;99.90
7564;DHT22;3823;53.586;10.040;2022-10-31T07:00:28;14.80;99.90
7564;DHT22;3823;53.586;10.040;2022-10-31T07:03:05;14.90;99.90
7564;DHT22;3823;53.586;10.040;2022-10-31T07:05:31;14.90;99.90
7564;DHT22;3823;53.586;10.040;2022-10-31T07:08:02;14.90;99.90
7564;DHT22;3823;53.586;10.040;2022-10-31T07:10:31;14.90;99.90
7564;DHT22;3823;53.586;10.040;2022-10-31T07:13:03;14.80;99.90
7564;DHT22;3823;53.586;10.040;2022-10-31T07:15:32;14.90;99.90
7564;DHT22;3823;53.586;10.040;2022-10-31T07:18:06;14.90;99.90
7564;DHT22;3823;53.586;10.040;2022-10-31T07:20:32;14.80;99.90
7564;DHT22;3823;53.586;10.040;2022-10-31T07:22:58;14.90;99.90
7564;DHT22;3823;53.586;10.040;2022-10-31T07:25:24;14.90;99.90
7564;DHT22;3823;53.586;10.040;2022-10-31T07:27:50;14.90;99.90
7564;DHT22;3823;53.586;10.040;2022-10-31T07:30:16;14.90;99.90
7564;DHT22;3823;53.586;10.040;2022-10-31T07:32:45;14.90;99.90
7564;DHT22;3823;53.586;10.040;2022-10-31T07:35:15;14.90;99.90
7564;DHT22;3823;53.586;10.040;2022-10-31T07:37:41;14.90;99.90
7564;DHT22;3823;53.586;10.040;2022-10-31T07:40:07;14.90;99.90
7564;DHT22;3823;53.586;10.040;2022-10-31T07:42:41;14.80;99.90
7564;DHT22;3823;53.586;10.040;2022-10-31T07:45:09;14.70;99.90
7564;DHT22;3823;53.586;10.040;2022-10-31T07:47:49;14.70;99.90
7564;DHT22;3823;53.586;10.040;2022-10-31T07:50:28;14.70;99.90
7564;DHT22;3823;53.586;10.040;2022-10-31T07:55:28;14.70;99.90
7564;DHT22;3823;53.586;10.040;2022-10-31T07:58:21;14.70;99.90
7564;DHT22;3823;53.586;10.040;2022-10-31T08:00:47;14.70;99.90
7564;DHT22;3823;53.586;10.040;2022-10-31T08:03:15;14.70;99.90
7564;DHT22;3823;53.586;10.040;2022-10-31T08:05:41;14.70;99.90
7564;DHT22;3823;53.586;10.040;2022-10-31T08:08:08;14.70;99.90
7564;DHT22;3823;53.586;10.040;2022-10-31T08:10:34;14.70;99.90
7564;DHT22;3823;53.586;10.040;2022-10-31T08:13:04;14.70;99.90
7564;DHT22;3823;53.586;10.040;2022-10-31T08:15:30;14.80;99.90
7564;DHT22;3823;53.586;10.040;2022-10-31T08:17:56;14.80;99.90
7564;DHT22;3823;53.586;10.040;2022-10-31T08:20:22;14.80;99.90
7564;DHT22;3823;53.586;10.040;2022-10-31T08:23:02;14.80;99.90
7564;DHT22;3823;53.586;10.040;2022-10-31T08:25:29;14.80;99.90
7564;DHT22;3823;53.586;10.040;2022-10-31T08:27:56;14.80;99.90
7564;DHT22;3823;53.586;10.040;2022-10-31T08:30:24;14.80;99.90
7564;DHT22;3823;53.586;10.040;2022-10-31T08:33:00;14.80;99.90
7564;DHT22;3823;53.586;10.040;2022-10-31T08:35:26;14.80;99.90
7564;DHT22;3823;53.586;10.040;2022-10-31T08:37:55;14.80;99.90
7564;DHT22;3823;53.586;10.040;2022-10-31T08:40:23;14.90;99.90
7564;DHT22;3823;53.586;10.040;2022-10-31T08:42:56;14.90;99.90
7564;DHT22;3823;53.586;10.040;2022-10-31T08:45:21;14.90;99.90
7564;DHT22;3823;53.586;10.040;2022-10-31T08:47:47;14.90;99.90
7564;DHT22;3823;53.586;10.040;2022-10-31T08:50:12;15.00;99.90
7564;DHT22;3823;53.586;10.040;2022-10-31T08:52:38;15.00;99.90
7564;DHT22;3823;53.586;10.040;2022-10-31T08:55:04;15.00;99.90
7564;DHT22;3823;53.586;10.040;2022-10-31T08:57:30;15.00;99.90
7564;DHT22;3823;53.586;10.040;2022-10-31T08:59:55;15.00;99.90
7564;DHT22;3823;53.586;10.040;2022-10-31T09:02:21;14.90;99.90
7564;DHT22;3823;53.586;10.040;2022-10-31T09:04:46;14.80;99.90
7564;DHT22;3823;53.586;10.040;2022-10-31T09:07:12;14.80;99.90
7564;DHT22;3823;53.586;10.040;2022-10-31T09:09:37;14.70;99.90
7564;DHT22;3823;53.586;10.040;2022-10-31T09:12:04;14.70;99.90
7564;DHT22;3823;53.586;10.040;2022-10-31T09:14:30;14.80;99.90
7564;DHT22;3823;53.586;10.040;2022-10-31T09:17:38;14.80;99.90
7564;DHT22;3823;53.586;10.040;2022-10-31T09:23:15;14.80;99.90
7564;DHT22;3823;53.586;10.040;2022-10-31T09:25:41;14.70;99.90
7564;DHT22;3823;53.586;10.040;2022-10-31T09:28:10;14.70;99.90
7564;DHT22;3823;53.586;10.040;2022-10-31T09:30:36;14.70;99.90
7564;DHT22;3823;53.586;10.040;2022-10-31T09:33:04;14.80;99.90
7564;DHT22;3823;53.586;10.040;2022-10-31T09:35:31;14.80;99.90
7564;DHT22;3823;53.586;10.040;2022-10-31T09:38:01;14.80;99.90
7564;DHT22;3823;53.586;10.040;2022-10-31T09:40:38;14.80;99.90
7564;DHT22;3823;53.586;10.040;2022-10-31T09:43:25;14.80;99.90
7564;DHT22;3823;53.586;10.040;2022-10-31T09:51:38;14.80;99.90
7564;DHT22;3823;53.586;10.040;2022-10-31T09:54:11;14.80;99.90
7564;DHT22;3823;53.586;10.040;2022-10-31T09:56:38;14.80;99.90
7564;DHT22;3823;53.586;10.040;2022-10-31T09:59:08;14.90;99.90
7564;DHT22;3823;53.586;10.040;2022-10-31T10:04:37;14.80;99.90
7564;DHT22;3823;53.586;10.040;2022-10-31T10:07:32;14.80;99.90
7564;DHT22;3823;53.586;10.040;2022-10-31T10:10:05;14.90;99.90
7564;DHT22;3823;53.586;10.040;2022-10-31T10:13:12;15.00;99.90
7564;DHT22;3823;53.586;10.040;2022-10-31T10:16:03;15.10;99.90
7564;DHT22;3823;53.586;10.040;2022-10-31T10:26:20;15.50;94.00
7564;DHT22;3823;53.586;10.040;2022-10-31T10:29:07;15.50;83.30
7564;DHT22;3823;53.586;10.040;2022-10-31T10:31:39;15.40;57.50
7564;DHT22;3823;53.586;10.040;2022-10-31T10:39:22;15.20;83.40
7564;DHT22;3823;53.586;10.040;2022-10-31T10:41:50;15.20;78.20
7564;DHT22;3823;53.586;10.040;2022-10-31T10:44:40;15.20;88.90
7564;DHT22;3823;53.586;10.040;2022-10-31T10:47:33;15.10;97.10
7564;DHT22;3823;53.586;10.040;2022-10-31T10:55:41;15.30;78.00
7564;DHT22;3823;53.586;10.040;2022-10-31T10:58:10;15.40;54.40
7564;DHT22;3823;53.586;10.040;2022-10-31T11:03:04;15.50;14.90
7564;DHT22;3823;53.586;10.040;2022-10-31T11:08:23;15.40;5.20
7564;DHT22;3823;53.586;10.040;2022-10-31T11:13:49;15.30;20.50
7564;DHT22;3823;53.586;10.040;2022-10-31T11:16:29;15.20;13.80
7564;DHT22;3823;53.586;10.040;2022-10-31T11:21:40;15.00;43.60
7564;DHT22;3823;53.586;10.040;2022-10-31T11:26:35;14.90;55.20
7564;DHT22;3823;53.586;10.040;2022-10-31T11:29:04;14.90;55.20
7564;DHT22;3823;53.586;10.040;2022-10-31T11:31:32;14.80;60.70
7564;DHT22;3823;53.586;10.040;2022-10-31T11:34:03;14.80;63.20
7564;DHT22;3823;53.586;10.040;2022-10-31T11:36:31;14.90;57.80
7564;DHT22;3823;53.586;10.040;2022-10-31T11:38:59;15.00;41.50
7564;DHT22;3823;53.586;10.040;2022-10-31T11:41:28;15.10;21.80
7564;DHT22;3823;53.586;10.040;2022-10-31T11:44:20;15.10;15.50
7564;DHT22;3823;53.586;10.040;2022-10-31T11:46:50;15.30;17.50
7564;DHT22;3823;53.586;10.040;2022-10-31T11:49:32;15.40;3.00
7564;DHT22;3823;53.586;10.040;2022-10-31T11:52:05;15.60;1.00
7564;DHT22;3823;53.586;10.040;2022-10-31T11:57:42;15.80;10.70
7564;DHT22;3823;53.586;10.040;2022-10-31T12:02:47;16.00;1.00
7564;DHT22;3823;53.586;10.040;2022-10-31T12:05:25;15.90;1.00
7564;DHT22;3823;53.586;10.040;2022-10-31T12:07:54;15.90;1.00
7564;DHT22;3823;53.586;10.040;2022-10-31T12:10:23;15.90;1.00
7564;DHT22;3823;53.586;10.040;2022-10-31T12:13:00;15.80;1.00
7564;DHT22;3823;53.586;10.040;2022-10-31T12:15:37;15.70;1.00
7564;DHT22;3823;53.586;10.040;2022-10-31T12:18:28;15.90;1.00
7564;DHT22;3823;53.586;10.040;2022-10-31T12:24:12;15.90;1.00
7564;DHT22;3823;53.586;10.040;2022-10-31T12:27:10;15.90;1.00
7564;DHT22;3823;53.586;10.040;2022-10-31T12:29:52;15.90;1.00
7564;DHT22;3823;53.586;10.040;2022-10-31T12:35:29;16.00;1.00
7564;DHT22;3823;53.586;10.040;2022-10-31T12:40:41;15.60;1.00
7564;DHT22;3823;53.586;10.040;2022-10-31T12:45:59;15.40;1.00
7564;DHT22;3823;53.586;10.040;2022-10-31T12:48:53;15.30;1.00
7564;DHT22;3823;53.586;10.040;2022-10-31T12:51:55;15.20;1.00
7564;DHT22;3823;53.586;10.040;2022-10-31T12:54:43;15.10;1.00
7564;DHT22;3823;53.586;10.040;2022-10-31T12:57:22;15.10;1.00
7564;DHT22;3823;53.586;10.040;2022-10-31T13:00:03;15.10;1.00
7564;DHT22;3823;53.586;10.040;2022-10-31T13:05:32;15.00;1.00
7564;DHT22;3823;53.586;10.040;2022-10-31T13:08:09;15.00;1.00
7564;DHT22;3823;53.586;10.040;2022-10-31T13:13:18;14.90;6.50
7564;DHT22;3823;53.586;10.040;2022-10-31T13:15:50;14.90;7.10
7564;DHT22;3823;53.586;10.040;2022-10-31T13:18:38;15.00;8.70
7564;DHT22;3823;53.586;10.040;2022-10-31T13:21:19;15.00;7.60
7564;DHT22;3823;53.586;10.040;2022-10-31T13:23:49;15.00;1.00
7564;DHT22;3823;53.586;10.040;2022-10-31T13:28:48;14.90;3.00
7564;DHT22;3823;53.586;10.040;2022-10-31T13:31:15;15.00;2.30
7564;DHT22;3823;53.586;10.040;2022-10-31T13:33:49;15.10;1.00
7564;DHT22;3823;53.586;10.040;2022-10-31T13:44:35;15.20;1.00
7564;DHT22;3823;53.586;10.040;2022-10-31T13:47:21;15.10;1.00
7564;DHT22;3823;53.586;10.040;2022-10-31T13:49:48;15.20;1.00
7564;DHT22;3823;53.586;10.040;2022-10-31T13:52:16;15.30;1.00
7564;DHT22;3823;53.586;10.040;2022-10-31T13:54:48;15.20;1.00
7564;DHT22;3823;53.586;10.040;2022-10-31T13:57:33;15.20;1.00
7564;DHT22;3823;53.586;10.040;2022-10-31T14:00:06;15.20;1.00
7564;DHT22;3823;53.586;10.040;2022-10-31T14:02:34;15.20;1.00
7564;DHT22;3823;53.586;10.040;2022-10-31T14:05:04;15.20;1.00
7564;DHT22;3823;53.586;10.040;2022-10-31T14:07:31;15.30;1.00
7564;DHT22;3823;53.586;10.040;2022-10-31T14:12:37;15.30;1.00
7564;DHT22;3823;53.586;10.040;2022-10-31T14:15:23;15.40;1.00
7564;DHT22;3823;53.586;10.040;2022-10-31T14:17:57;15.30;1.00
7564;DHT22;3823;53.586;10.040;2022-10-31T14:20:40;15.20;1.00
7564;DHT22;3823;53.586;10.040;2022-10-31T14:25:53;14.90;1.00
7564;DHT22;3823;53.586;10.040;2022-10-31T14:28:37;14.80;1.00
7564;DHT22;3823;53.586;10.040;2022-10-31T14:31:30;14.80;1.00
7564;DHT22;3823;53.586;10.040;2022-10-31T14:42:36;14.70;14.60
7564;DHT22;3823;53.586;10.040;2022-10-31T14:45:16;14.70;21.50
7564;DHT22;3823;53.586;10.040;2022-10-31T14:50:53;14.60;34.60
7564;DHT22;3823;53.586;10.040;2022-10-31T14:55:57;14.60;42.90
7564;DHT22;3823;53.586;10.040;2022-10-31T15:00:55;14.60;45.10
7564;DHT22;3823;53.586;10.040;2022-10-31T15:03:31;14.60;53.70
7564;DHT22;3823;53.586;10.040;2022-10-31T15:06:02;14.50;57.80
7564;DHT22;3823;53.586;10.040;2022-10-31T15:08:39;14.40;70.60
7564;DHT22;3823;53.586;10.040;2022-10-31T15:11:25;14.40;87.10
7564;DHT22;3823;53.586;10.040;2022-10-31T15:13:57;14.40;82.20
7564;DHT22;3823;53.586;10.040;2022-10-31T15:16:34;14.40;83.90
7564;DHT22;3823;53.586;10.040;2022-10-31T15:19:10;14.40;83.20
7564;DHT22;3823;53.586;10.040;2022-10-31T15:21:42;14.30;84.10
7564;DHT22;3823;53.586;10.040;2022-10-31T15:24:14;14.30;86.70
7564;DHT22;3823;53.586;10.040;2022-10-31T15:26:52;14.30;85.50
7564;DHT22;3823;53.586;10.040;2022-10-31T15:29:23;14.20;90.60
7564;DHT22;3823;53.586;10.040;2022-10-31T15:31:53;14.30;94.40
7564;DHT22;3823;53.586;10.040;2022-10-31T15:34:49;14.40;90.00
7564;DHT22;3823;53.586;10.040;2022-10-31T15:37:23;14.40;83.00
7564;DHT22;3823;53.586;10.040;2022-10-31T15:39:50;14.50;92.40
7564;DHT22;3823;53.586;10.040;2022-10-31T15:42:32;14.60;37.10
7564;DHT22;3823;53.586;10.040;2022-10-31T15:45:12;14.40;65.80
7564;DHT22;3823;53.586;10.040;2022-10-31T15:48:00;14.30;69.50
7564;DHT22;3823;53.586;10.040;2022-10-31T15:50:40;14.10;98.10
7564;DHT22;3823;53.586;10.040;2022-10-31T15:53:36;14.00;99.90
7564;DHT22;3823;53.586;10.040;2022-10-31T15:56:02;14.00;99.90
7564;DHT22;3823;53.586;10.040;2022-10-31T15:58:35;13.90;99.90
7564;DHT22;3823;53.586;10.040;2022-10-31T16:01:06;13.90;99.90
7564;DHT22;3823;53.586;10.040;2022-10-31T16:03:43;13.90;99.90
7564;DHT22;3823;53.586;10.040;2022-10-31T16:06:20;13.80;99.90
7564;DHT22;3823;53.586;10.040;2022-10-31T16:08:48;13.70;99.90
7564;DHT22;3823;53.586;10.040;2022-10-31T16:14:15;13.60;99.90
7564;DHT22;3823;53.586;10.040;2022-10-31T16:16:53;13.50;99.90
7564;DHT22;3823;53.586;10.040;2022-10-31T16:19:26;13.50;99.90
7564;DHT22;3823;53.586;10.040;2022-10-31T16:22:08;13.50;99.90
7564;DHT22;3823;53.586;10.040;2022-10-31T16:27:18;13.50;99.90
7564;DHT22;3823;53.586;10.040;2022-10-31T16:29:46;13.50;99.90
7564;DHT22;3823;53.586;10.040;2022-10-31T16:32:32;13.40;99.90
7564;DHT22;3823;53.586;10.040;2022-10-31T16:35:25;13.30;99.90
7564;DHT22;3823;53.586;10.040;2022-10-31T16:37:51;13.20;99.90
7564;DHT22;3823;53.586;10.040;2022-10-31T16:40:17;13.20;99.90
7564;DHT22;3823;53.586;10.040;2022-10-31T16:42:44;13.20;99.90
7564;DHT22;3823;53.586;10.040;2022-10-31T16:45:22;13.20;99.90
7564;DHT22;3823;53.586;10.040;2022-10-31T16:47:48;13.10;99.90
7564;DHT22;3823;53.586;10.040;2022-10-31T16:50:23;13.20;99.90
7564;DHT22;3823;53.586;10.040;2022-10-31T16:52:49;13.20;99.90
7564;DHT22;3823;53.586;10.040;2022-10-31T16:55:16;13.20;99.90
7564;DHT22;3823;53.586;10.040;2022-10-31T16:57:53;13.20;99.90
7564;DHT22;3823;53.586;10.040;2022-10-31T17:00:21;13.20;99.90
7564;DHT22;3823;53.586;10.040;2022-10-31T17:02:49;13.10;99.90
7564;DHT22;3823;53.586;10.040;2022-10-31T17:05:17;13.10;99.90
7564;DHT22;3823;53.586;10.040;2022-10-31T17:07:44;13.10;99.90
7564;DHT22;3823;53.586;10.040;2022-10-31T17:10:10;13.10;99.90
7564;DHT22;3823;53.586;10.040;2022-10-31T17:12:37;13.20;99.90
7564;DHT22;3823;53.586;10.040;2022-10-31T17:15:05;13.30;99.90
7564;DHT22;3823;53.586;10.040;2022-10-31T17:17:31;13.30;99.90
7564;DHT22;3823;53.586;10.040;2022-10-31T17:19:57;13.30;99.90
7564;DHT22;3823;53.586;10.040;2022-10-31T17:22:22;13.20;99.90
7564;DHT22;3823;53.586;10.040;2022-10-31T17:24:48;13.30;99.90
7564;DHT22;3823;53.586;10.040;2022-10-31T17:27:14;13.30;99.90
7564;DHT22;3823;53.586;10.040;2022-10-31T17:29:39;13.30;99.90
7564;DHT22;3823;53.586;10.040;2022-10-31T17:32:05;13.20;99.90
7564;DHT22;3823;53.586;10.040;2022-10-31T17:34:30;13.20;99.90
7564;DHT22;3823;53.586;10.040;2022-10-31T17:36:56;13.20;99.90
7564;DHT22;3823;53.586;10.040;2022-10-31T17:39:22;13.20;99.90
7564;DHT22;3823;53.586;10.040;2022-10-31T17:41:51;13.20;99.90
7564;DHT22;3823;53.586;10.040;2022-10-31T17:44:17;13.20;99.90
7564;DHT22;3823;53.586;10.040;2022-10-31T17:46:43;13.20;99.90
7564;DHT22;3823;53.586;10.040;2022-10-31T17:49:10;13.20;99.90
7564;DHT22;3823;53.586;10.040;2022-10-31T17:51:36;13.20;99.90
7564;DHT22;3823;53.586;10.040;2022-10-31T17:54:02;13.20;99.90
7564;DHT22;3823;53.586;10.040;2022-10-31T17:56:30;13.10;99.90
7564;DHT22;3823;53.586;10.040;2022-10-31T17:58:56;13.20;99.90
7564;DHT22;3823;53.586;10.040;2022-10-31T18:01:22;13.20;99.90
7564;DHT22;3823;53.586;10.040;2022-10-31T18:03:47;13.20;99.90
7564;DHT22;3823;53.586;10.040;2022-10-31T18:06:13;13.20;99.90
7564;DHT22;3823;53.586;10.040;2022-10-31T18:08:41;13.20;99.90
7564;DHT22;3823;53.586;10.040;2022-10-31T18:11:10;13.10;99.90
7564;DHT22;3823;53.586;10.040;2022-10-31T18:13:36;13.20;99.90
7564;DHT22;3823;53.586;10.040;2022-10-31T18:16:09;13.20;99.90
7564;DHT22;3823;53.586;10.040;2022-10-31T18:18:35;13.20;99.90
7564;DHT22;3823;53.586;10.040;2022-10-31T18:21:01;13.20;99.90